Cape Meares, Oregon
Current Conditions -  °F | °C
As of 11:35 AM on Thursday 27 Nov 2014 (Local Time) from KTMK Reporting Station
Moderate Rain Moderate Rain  
Wind Chill: 55°   Ceiling: 2400
Heat Index: 55°   Visibility: 3mi
Dew Point: 54°   Wind: 10mph
Humidity: 94%   Direction: 180°S
Pressure: 29.95"   Gusts: NA
Location:  45.4813°N, 123.674°W
Report Text: KTMK 271935Z AUTO 18009KT 3SM RA SCT014 OVC024 13/12 A2995 RMK AO2 P0001
Loading
Personal Weather Stations






























Interactive Weather Map New forecast layout! Learn more

10-Day Weather Forecast

Advertisements
Track Severe Weather on mobile